Robersonville, NC (27871)

00:03 EDT le 27 avril 2015 (GMT -0400)
Pitt-Greenville | | Change Station
CLOSE
Current Station
Aéroport
Location: Greenville,
Altitude: 26 ft
Stations météo à proximité

Alt. 26 ft 35.64 °N, 77.39 °W | Updated 28 minutes ago

Ciel dégagé
Ciel dégagé
48 ° F
Paraît 48 ° F
N
0
Vent Variable Vent de Nord

Aujourd'hui
Haut(e) -- | Bas -- ° F
--% Risque de précip.
Hier
Haut(e) -- | Bas -- ° F
Precip. -- pouce
6:21 AM 7:52 PM
Premier quartier, 61% visible
Pression 29.80 pouce
Visibilité 10.0 Miles terrestres
Nuages Ciel dégagé
Point de rosée 48 ° F
Humidité 100%
Précipitations 0.03 pouce
Profondeur de la couche neigeuse Non disponible.
UV 0 sur 12
Pollen 7.20 sur 12
Qualité de l'air Non disponible.
Flu Activity Sporadic
METAR KPGV 270335Z AUTO 00000KT 10SM CLR 09/09 A2980 RMK AO2

More Conditions Fewer Conditions

Pression 29.80 pouce
Visibilité 10.0 Miles terrestres
Nuages Ciel dégagé
Point de rosée 48 ° F
Humidité 100%
Précipitations 0.03 pouce
Profondeur de la couche neigeuse Non disponible.
UV 0 sur 12
Pollen 7.20 sur 12
Qualité de l'air Non disponible.
Flu Activity Sporadic
METAR KPGV 270335Z AUTO 00000KT 10SM CLR 09/09 A2980 RMK AO2

More Conditions Fewer Conditions

The full scope of the disaster following a powerful 7.8-magnitude earthquake in Nepal may not come into view for days, but global charities are already sending emergency aid. Click to see how you can help.

10-Day Weather Forecast

Almanac

Astronomie

Apr. 27, 2015 Lever Coucher
Temps réel
Crépuscule civil
Crépuscule nautique
Crépuscule astronomique
Lune
Durée de lumière visible
Longueur du jour
Tomorrow will be .
, % of the Moon is Illuminated

Extrêmes aujourd'hui

State Highs State Lows

Community

WunderPhotos

Upload Photos

1,817,259 Photos téléchargées !

WunderBlogs® & News

Nearby

Qualité de l'air

  Qualité de l'air Indice de la qualité de l'air Polluant
Not available.

Épaisseur de neige

Station Depth Altitude

Activité sismique

Ville Distance Mag. Time & Date
Minimum magnitude displayed is 2.5.

Températures des eaux côtières

Lieu Température

Stations

Stations météo à proximité

Emplacement de la station Température Refroidissement éolien Point de rosée Humidité Vent Precip. Alt. Mise à jour Type